sensor_id;sensor_type;location;lat;lon;timestamp;temperature;humidity
14908;DHT22;7545;52.092;7.006;2022-10-16T00:01:21;13.90;99.90
14908;DHT22;7545;52.092;7.006;2022-10-16T00:03:47;14.00;99.90
14908;DHT22;7545;52.092;7.006;2022-10-16T00:06:14;13.90;99.90
14908;DHT22;7545;52.092;7.006;2022-10-16T00:08:41;13.90;99.90
14908;DHT22;7545;52.092;7.006;2022-10-16T00:11:30;13.90;99.90
14908;DHT22;7545;52.092;7.006;2022-10-16T00:13:57;13.90;99.90
14908;DHT22;7545;52.092;7.006;2022-10-16T00:16:24;13.90;99.90
14908;DHT22;7545;52.092;7.006;2022-10-16T00:18:49;13.90;99.90
14908;DHT22;7545;52.092;7.006;2022-10-16T00:21:18;13.90;99.90
14908;DHT22;7545;52.092;7.006;2022-10-16T00:23:44;13.90;99.90
14908;DHT22;7545;52.092;7.006;2022-10-16T00:26:13;13.90;99.90
14908;DHT22;7545;52.092;7.006;2022-10-16T00:28:40;13.90;99.90
14908;DHT22;7545;52.092;7.006;2022-10-16T00:31:10;13.80;99.90
14908;DHT22;7545;52.092;7.006;2022-10-16T00:33:37;13.80;99.90
14908;DHT22;7545;52.092;7.006;2022-10-16T00:36:04;13.80;99.90
14908;DHT22;7545;52.092;7.006;2022-10-16T00:38:30;13.80;99.90
14908;DHT22;7545;52.092;7.006;2022-10-16T00:40:56;13.90;99.90
14908;DHT22;7545;52.092;7.006;2022-10-16T00:43:49;13.80;99.90
14908;DHT22;7545;52.092;7.006;2022-10-16T00:46:25;13.80;99.90
14908;DHT22;7545;52.092;7.006;2022-10-16T00:49:12;13.80;99.90
14908;DHT22;7545;52.092;7.006;2022-10-16T00:51:45;13.80;99.90
14908;DHT22;7545;52.092;7.006;2022-10-16T00:54:25;13.70;99.90
14908;DHT22;7545;52.092;7.006;2022-10-16T00:56:53;13.70;99.90
14908;DHT22;7545;52.092;7.006;2022-10-16T00:59:29;13.70;99.90
14908;DHT22;7545;52.092;7.006;2022-10-16T01:01:56;13.70;99.90
14908;DHT22;7545;52.092;7.006;2022-10-16T01:04:23;13.60;99.90
14908;DHT22;7545;52.092;7.006;2022-10-16T01:15:36;13.60;99.90
14908;DHT22;7545;52.092;7.006;2022-10-16T01:17:54;13.70;99.90
14908;DHT22;7545;52.092;7.006;2022-10-16T01:26:30;13.60;99.90
14908;DHT22;7545;52.092;7.006;2022-10-16T01:29:06;13.60;99.90
14908;DHT22;7545;52.092;7.006;2022-10-16T01:31:37;13.60;99.90
14908;DHT22;7545;52.092;7.006;2022-10-16T01:37:15;13.70;99.90
14908;DHT22;7545;52.092;7.006;2022-10-16T01:39:44;13.70;99.90
14908;DHT22;7545;52.092;7.006;2022-10-16T01:42:29;13.70;99.90
14908;DHT22;7545;52.092;7.006;2022-10-16T01:44:56;13.70;99.90
14908;DHT22;7545;52.092;7.006;2022-10-16T01:47:25;13.70;99.90
14908;DHT22;7545;52.092;7.006;2022-10-16T01:49:52;13.60;99.90
14908;DHT22;7545;52.092;7.006;2022-10-16T01:52:21;13.70;99.90
14908;DHT22;7545;52.092;7.006;2022-10-16T01:54:50;13.70;99.90
14908;DHT22;7545;52.092;7.006;2022-10-16T01:57:18;13.70;99.90
14908;DHT22;7545;52.092;7.006;2022-10-16T01:59:49;13.70;99.90
14908;DHT22;7545;52.092;7.006;2022-10-16T02:02:17;13.70;99.90
14908;DHT22;7545;52.092;7.006;2022-10-16T02:05:02;13.70;99.90
14908;DHT22;7545;52.092;7.006;2022-10-16T02:07:30;13.70;99.90
14908;DHT22;7545;52.092;7.006;2022-10-16T02:09:55;13.60;99.90
14908;DHT22;7545;52.092;7.006;2022-10-16T02:12:26;13.60;99.90
14908;DHT22;7545;52.092;7.006;2022-10-16T02:14:52;13.70;99.90
14908;DHT22;7545;52.092;7.006;2022-10-16T02:17:19;13.60;99.90
14908;DHT22;7545;52.092;7.006;2022-10-16T02:19:46;13.70;99.90
14908;DHT22;7545;52.092;7.006;2022-10-16T02:22:22;13.70;99.90
14908;DHT22;7545;52.092;7.006;2022-10-16T02:24:59;13.60;99.90
14908;DHT22;7545;52.092;7.006;2022-10-16T02:32:49;13.60;99.90
14908;DHT22;7545;52.092;7.006;2022-10-16T02:35:17;13.70;99.90
14908;DHT22;7545;52.092;7.006;2022-10-16T02:37:45;13.60;99.90
14908;DHT22;7545;52.092;7.006;2022-10-16T02:40:12;13.60;99.90
14908;DHT22;7545;52.092;7.006;2022-10-16T02:42:39;13.70;99.90
14908;DHT22;7545;52.092;7.006;2022-10-16T02:45:07;13.60;99.90
14908;DHT22;7545;52.092;7.006;2022-10-16T02:47:33;13.60;99.90
14908;DHT22;7545;52.092;7.006;2022-10-16T02:49:59;13.70;99.90
14908;DHT22;7545;52.092;7.006;2022-10-16T02:52:24;13.70;99.90
14908;DHT22;7545;52.092;7.006;2022-10-16T02:54:50;13.70;99.90
14908;DHT22;7545;52.092;7.006;2022-10-16T02:57:15;13.70;99.90
14908;DHT22;7545;52.092;7.006;2022-10-16T02:59:41;13.70;99.90
14908;DHT22;7545;52.092;7.006;2022-10-16T03:02:06;13.70;99.90
14908;DHT22;7545;52.092;7.006;2022-10-16T03:04:32;13.70;99.90
14908;DHT22;7545;52.092;7.006;2022-10-16T03:06:58;13.70;99.90
14908;DHT22;7545;52.092;7.006;2022-10-16T03:09:23;13.70;99.90
14908;DHT22;7545;52.092;7.006;2022-10-16T03:11:49;13.70;99.90
14908;DHT22;7545;52.092;7.006;2022-10-16T03:14:14;13.60;99.90
14908;DHT22;7545;52.092;7.006;2022-10-16T03:16:40;13.70;99.90
14908;DHT22;7545;52.092;7.006;2022-10-16T03:19:06;13.70;99.90
14908;DHT22;7545;52.092;7.006;2022-10-16T03:21:31;13.70;99.90
14908;DHT22;7545;52.092;7.006;2022-10-16T03:23:57;13.70;99.90
14908;DHT22;7545;52.092;7.006;2022-10-16T03:26:22;13.60;99.90
14908;DHT22;7545;52.092;7.006;2022-10-16T03:28:48;13.70;99.90
14908;DHT22;7545;52.092;7.006;2022-10-16T03:31:13;13.70;99.90
14908;DHT22;7545;52.092;7.006;2022-10-16T03:33:39;13.70;99.90
14908;DHT22;7545;52.092;7.006;2022-10-16T03:36:05;13.70;99.90
14908;DHT22;7545;52.092;7.006;2022-10-16T03:38:30;13.70;99.90
14908;DHT22;7545;52.092;7.006;2022-10-16T03:40:56;13.70;99.90
14908;DHT22;7545;52.092;7.006;2022-10-16T03:43:22;13.70;99.90
14908;DHT22;7545;52.092;7.006;2022-10-16T03:45:47;13.70;99.90
14908;DHT22;7545;52.092;7.006;2022-10-16T03:48:13;13.60;99.90
14908;DHT22;7545;52.092;7.006;2022-10-16T03:50:38;13.70;99.90
14908;DHT22;7545;52.092;7.006;2022-10-16T03:53:04;13.70;99.90
14908;DHT22;7545;52.092;7.006;2022-10-16T03:55:29;13.70;99.90
14908;DHT22;7545;52.092;7.006;2022-10-16T03:57:55;13.70;99.90
14908;DHT22;7545;52.092;7.006;2022-10-16T04:00:20;13.60;99.90
14908;DHT22;7545;52.092;7.006;2022-10-16T04:02:46;13.70;99.90
14908;DHT22;7545;52.092;7.006;2022-10-16T04:05:12;13.60;99.90
14908;DHT22;7545;52.092;7.006;2022-10-16T04:07:37;13.60;99.90
14908;DHT22;7545;52.092;7.006;2022-10-16T04:10:04;13.70;99.90
14908;DHT22;7545;52.092;7.006;2022-10-16T04:12:29;13.70;99.90
14908;DHT22;7545;52.092;7.006;2022-10-16T04:14:55;13.60;99.90
14908;DHT22;7545;52.092;7.006;2022-10-16T04:17:21;13.60;99.90
14908;DHT22;7545;52.092;7.006;2022-10-16T04:19:46;13.60;99.90
14908;DHT22;7545;52.092;7.006;2022-10-16T04:22:12;13.70;99.90
14908;DHT22;7545;52.092;7.006;2022-10-16T04:24:37;13.70;99.90
14908;DHT22;7545;52.092;7.006;2022-10-16T04:27:03;13.70;99.90
14908;DHT22;7545;52.092;7.006;2022-10-16T04:29:29;13.70;99.90
14908;DHT22;7545;52.092;7.006;2022-10-16T04:31:54;13.70;99.90
14908;DHT22;7545;52.092;7.006;2022-10-16T04:34:20;13.60;99.90
14908;DHT22;7545;52.092;7.006;2022-10-16T04:36:48;13.60;99.90
14908;DHT22;7545;52.092;7.006;2022-10-16T04:39:15;13.60;99.90
14908;DHT22;7545;52.092;7.006;2022-10-16T04:41:40;13.60;99.90
14908;DHT22;7545;52.092;7.006;2022-10-16T04:44:06;13.60;99.90
14908;DHT22;7545;52.092;7.006;2022-10-16T04:46:32;13.60;99.90
14908;DHT22;7545;52.092;7.006;2022-10-16T04:48:57;13.60;99.90
14908;DHT22;7545;52.092;7.006;2022-10-16T04:51:23;13.60;99.90
14908;DHT22;7545;52.092;7.006;2022-10-16T04:53:49;13.60;99.90
14908;DHT22;7545;52.092;7.006;2022-10-16T04:56:14;13.60;99.90
14908;DHT22;7545;52.092;7.006;2022-10-16T04:58:40;13.60;99.90
14908;DHT22;7545;52.092;7.006;2022-10-16T05:01:06;13.60;99.90
14908;DHT22;7545;52.092;7.006;2022-10-16T05:03:32;13.60;99.90
14908;DHT22;7545;52.092;7.006;2022-10-16T05:05:57;13.60;99.90
14908;DHT22;7545;52.092;7.006;2022-10-16T05:08:23;13.60;99.90
14908;DHT22;7545;52.092;7.006;2022-10-16T05:10:49;13.60;99.90
14908;DHT22;7545;52.092;7.006;2022-10-16T05:13:14;13.60;99.90
14908;DHT22;7545;52.092;7.006;2022-10-16T05:15:40;13.60;99.90
14908;DHT22;7545;52.092;7.006;2022-10-16T05:18:06;13.60;99.90
14908;DHT22;7545;52.092;7.006;2022-10-16T05:20:31;13.60;99.90
14908;DHT22;7545;52.092;7.006;2022-10-16T05:22:57;13.60;99.90
14908;DHT22;7545;52.092;7.006;2022-10-16T05:25:26;13.50;99.90
14908;DHT22;7545;52.092;7.006;2022-10-16T05:27:51;13.60;99.90
14908;DHT22;7545;52.092;7.006;2022-10-16T05:30:18;13.50;99.90
14908;DHT22;7545;52.092;7.006;2022-10-16T05:32:50;13.50;99.90
14908;DHT22;7545;52.092;7.006;2022-10-16T05:35:17;13.50;99.90
14908;DHT22;7545;52.092;7.006;2022-10-16T05:37:43;13.50;99.90
14908;DHT22;7545;52.092;7.006;2022-10-16T05:40:09;13.50;99.90
14908;DHT22;7545;52.092;7.006;2022-10-16T05:42:35;13.50;99.90
14908;DHT22;7545;52.092;7.006;2022-10-16T05:45:00;13.50;99.90
14908;DHT22;7545;52.092;7.006;2022-10-16T05:47:26;13.50;99.90
14908;DHT22;7545;52.092;7.006;2022-10-16T05:49:53;13.50;99.90
14908;DHT22;7545;52.092;7.006;2022-10-16T05:52:18;13.50;99.90
14908;DHT22;7545;52.092;7.006;2022-10-16T05:54:44;13.50;99.90
14908;DHT22;7545;52.092;7.006;2022-10-16T05:57:09;13.50;99.90
14908;DHT22;7545;52.092;7.006;2022-10-16T05:59:35;13.50;99.90
14908;DHT22;7545;52.092;7.006;2022-10-16T06:02:01;13.50;99.90
14908;DHT22;7545;52.092;7.006;2022-10-16T06:04:26;13.50;99.90
14908;DHT22;7545;52.092;7.006;2022-10-16T06:06:52;13.50;99.90
14908;DHT22;7545;52.092;7.006;2022-10-16T06:09:17;13.50;99.90
14908;DHT22;7545;52.092;7.006;2022-10-16T06:11:43;13.40;99.90
14908;DHT22;7545;52.092;7.006;2022-10-16T06:14:09;13.50;99.90
14908;DHT22;7545;52.092;7.006;2022-10-16T06:16:35;13.50;99.90
14908;DHT22;7545;52.092;7.006;2022-10-16T06:19:02;13.50;99.90
14908;DHT22;7545;52.092;7.006;2022-10-16T06:21:31;13.50;99.90
14908;DHT22;7545;52.092;7.006;2022-10-16T06:23:58;13.50;99.90
14908;DHT22;7545;52.092;7.006;2022-10-16T06:26:26;13.50;99.90
14908;DHT22;7545;52.092;7.006;2022-10-16T06:28:54;13.50;99.90
14908;DHT22;7545;52.092;7.006;2022-10-16T06:31:20;13.50;99.90
14908;DHT22;7545;52.092;7.006;2022-10-16T06:33:50;13.50;99.90
14908;DHT22;7545;52.092;7.006;2022-10-16T06:36:16;13.50;99.90
14908;DHT22;7545;52.092;7.006;2022-10-16T06:38:43;13.50;99.90
14908;DHT22;7545;52.092;7.006;2022-10-16T06:41:11;13.50;99.90
14908;DHT22;7545;52.092;7.006;2022-10-16T06:43:37;13.50;99.90
14908;DHT22;7545;52.092;7.006;2022-10-16T06:46:04;13.50;99.90
14908;DHT22;7545;52.092;7.006;2022-10-16T06:48:31;13.50;99.90
14908;DHT22;7545;52.092;7.006;2022-10-16T06:51:01;13.50;99.90
14908;DHT22;7545;52.092;7.006;2022-10-16T06:53:30;13.50;99.90
14908;DHT22;7545;52.092;7.006;2022-10-16T06:55:56;13.50;99.90
14908;DHT22;7545;52.092;7.006;2022-10-16T06:58:22;13.50;99.90
14908;DHT22;7545;52.092;7.006;2022-10-16T07:00:48;13.40;99.90
14908;DHT22;7545;52.092;7.006;2022-10-16T07:03:14;13.50;99.90
14908;DHT22;7545;52.092;7.006;2022-10-16T07:05:43;13.50;99.90
14908;DHT22;7545;52.092;7.006;2022-10-16T07:08:09;13.50;99.90
14908;DHT22;7545;52.092;7.006;2022-10-16T07:10:35;13.50;99.90
14908;DHT22;7545;52.092;7.006;2022-10-16T07:13:01;13.50;99.90
14908;DHT22;7545;52.092;7.006;2022-10-16T07:15:26;13.50;99.90
14908;DHT22;7545;52.092;7.006;2022-10-16T07:17:52;13.50;99.90
14908;DHT22;7545;52.092;7.006;2022-10-16T07:20:18;13.50;99.90
14908;DHT22;7545;52.092;7.006;2022-10-16T07:22:44;13.50;99.90
14908;DHT22;7545;52.092;7.006;2022-10-16T07:25:10;13.50;99.90
14908;DHT22;7545;52.092;7.006;2022-10-16T07:27:36;13.50;99.90
14908;DHT22;7545;52.092;7.006;2022-10-16T07:30:03;13.50;99.90
14908;DHT22;7545;52.092;7.006;2022-10-16T07:32:29;13.60;99.90
14908;DHT22;7545;52.092;7.006;2022-10-16T07:34:55;13.60;99.90
14908;DHT22;7545;52.092;7.006;2022-10-16T07:37:21;13.60;99.90
14908;DHT22;7545;52.092;7.006;2022-10-16T07:39:47;13.70;99.90
14908;DHT22;7545;52.092;7.006;2022-10-16T07:42:12;13.70;99.90
14908;DHT22;7545;52.092;7.006;2022-10-16T07:44:38;13.70;99.90
14908;DHT22;7545;52.092;7.006;2022-10-16T07:47:04;13.70;99.90
14908;DHT22;7545;52.092;7.006;2022-10-16T07:49:29;13.70;99.90
14908;DHT22;7545;52.092;7.006;2022-10-16T07:51:55;13.70;99.90
14908;DHT22;7545;52.092;7.006;2022-10-16T07:54:20;13.80;99.90
14908;DHT22;7545;52.092;7.006;2022-10-16T07:56:46;13.80;99.90
14908;DHT22;7545;52.092;7.006;2022-10-16T07:59:11;13.80;99.90
14908;DHT22;7545;52.092;7.006;2022-10-16T08:01:37;13.90;99.90
14908;DHT22;7545;52.092;7.006;2022-10-16T08:04:03;13.90;99.90
14908;DHT22;7545;52.092;7.006;2022-10-16T08:06:28;13.90;99.90
14908;DHT22;7545;52.092;7.006;2022-10-16T08:08:55;13.90;99.90
14908;DHT22;7545;52.092;7.006;2022-10-16T08:11:21;13.90;99.90
14908;DHT22;7545;52.092;7.006;2022-10-16T08:13:47;14.00;99.90
14908;DHT22;7545;52.092;7.006;2022-10-16T08:16:12;14.00;99.90
14908;DHT22;7545;52.092;7.006;2022-10-16T08:18:39;14.00;99.90
14908;DHT22;7545;52.092;7.006;2022-10-16T08:21:07;14.10;99.90
14908;DHT22;7545;52.092;7.006;2022-10-16T08:23:33;14.10;99.90
14908;DHT22;7545;52.092;7.006;2022-10-16T08:26:05;14.10;99.90
14908;DHT22;7545;52.092;7.006;2022-10-16T08:28:31;14.20;99.90
14908;DHT22;7545;52.092;7.006;2022-10-16T08:31:13;14.20;99.90
14908;DHT22;7545;52.092;7.006;2022-10-16T08:33:42;14.20;99.90
14908;DHT22;7545;52.092;7.006;2022-10-16T08:36:10;14.20;99.90
14908;DHT22;7545;52.092;7.006;2022-10-16T08:38:36;14.20;99.90
14908;DHT22;7545;52.092;7.006;2022-10-16T08:47:20;14.40;99.90
14908;DHT22;7545;52.092;7.006;2022-10-16T08:49:59;14.40;99.90
14908;DHT22;7545;52.092;7.006;2022-10-16T08:52:30;14.40;99.90
14908;DHT22;7545;52.092;7.006;2022-10-16T08:54:57;14.40;99.90
14908;DHT22;7545;52.092;7.006;2022-10-16T08:57:25;14.50;99.90
14908;DHT22;7545;52.092;7.006;2022-10-16T08:59:52;14.50;99.90
14908;DHT22;7545;52.092;7.006;2022-10-16T09:04:53;14.60;99.90
14908;DHT22;7545;52.092;7.006;2022-10-16T09:08:07;14.60;99.90
14908;DHT22;7545;52.092;7.006;2022-10-16T09:16:31;14.70;99.90
14908;DHT22;7545;52.092;7.006;2022-10-16T09:19:20;14.80;99.90
14908;DHT22;7545;52.092;7.006;2022-10-16T09:21:48;14.80;99.90
14908;DHT22;7545;52.092;7.006;2022-10-16T09:24:26;14.90;99.90
14908;DHT22;7545;52.092;7.006;2022-10-16T09:26:52;14.90;99.90
14908;DHT22;7545;52.092;7.006;2022-10-16T09:29:19;14.90;99.90
14908;DHT22;7545;52.092;7.006;2022-10-16T09:31:52;14.90;99.90
14908;DHT22;7545;52.092;7.006;2022-10-16T09:34:30;15.00;99.90
14908;DHT22;7545;52.092;7.006;2022-10-16T09:36:57;15.00;99.90
14908;DHT22;7545;52.092;7.006;2022-10-16T09:39:24;15.10;99.90
14908;DHT22;7545;52.092;7.006;2022-10-16T09:41:49;15.10;99.90
14908;DHT22;7545;52.092;7.006;2022-10-16T09:44:27;15.20;99.90
14908;DHT22;7545;52.092;7.006;2022-10-16T09:47:15;15.20;99.90
14908;DHT22;7545;52.092;7.006;2022-10-16T09:49:54;15.30;99.90
14908;DHT22;7545;52.092;7.006;2022-10-16T09:52:20;15.30;99.90
14908;DHT22;7545;52.092;7.006;2022-10-16T09:54:58;15.30;99.90
14908;DHT22;7545;52.092;7.006;2022-10-16T09:57:24;15.40;99.90
14908;DHT22;7545;52.092;7.006;2022-10-16T09:59:55;15.40;99.90
14908;DHT22;7545;52.092;7.006;2022-10-16T10:02:31;15.40;99.90
14908;DHT22;7545;52.092;7.006;2022-10-16T10:04:59;15.40;99.90
14908;DHT22;7545;52.092;7.006;2022-10-16T10:07:27;15.50;99.90
14908;DHT22;7545;52.092;7.006;2022-10-16T10:09:55;15.60;99.90
14908;DHT22;7545;52.092;7.006;2022-10-16T10:12:24;15.70;99.90
14908;DHT22;7545;52.092;7.006;2022-10-16T10:14:55;15.70;99.90
14908;DHT22;7545;52.092;7.006;2022-10-16T10:17:23;15.80;99.90
14908;DHT22;7545;52.092;7.006;2022-10-16T10:19:54;15.80;99.90
14908;DHT22;7545;52.092;7.006;2022-10-16T10:39:45;16.30;99.90
14908;DHT22;7545;52.092;7.006;2022-10-16T10:45:00;16.40;99.90
14908;DHT22;7545;52.092;7.006;2022-10-16T10:48:15;16.40;99.90
14908;DHT22;7545;52.092;7.006;2022-10-16T10:50:25;16.40;99.90
14908;DHT22;7545;52.092;7.006;2022-10-16T10:58:32;16.50;99.90
14908;DHT22;7545;52.092;7.006;2022-10-16T11:01:13;16.40;99.90
14908;DHT22;7545;52.092;7.006;2022-10-16T11:06:24;16.40;99.90
14908;DHT22;7545;52.092;7.006;2022-10-16T11:11:36;16.40;99.90
14908;DHT22;7545;52.092;7.006;2022-10-16T11:14:15;16.40;99.90
14908;DHT22;7545;52.092;7.006;2022-10-16T11:19:20;16.50;99.90
14908;DHT22;7545;52.092;7.006;2022-10-16T11:21:54;16.50;99.90
14908;DHT22;7545;52.092;7.006;2022-10-16T11:27:06;16.70;99.90
14908;DHT22;7545;52.092;7.006;2022-10-16T11:29:35;16.70;99.90
14908;DHT22;7545;52.092;7.006;2022-10-16T11:32:06;16.70;99.90
14908;DHT22;7545;52.092;7.006;2022-10-16T11:34:47;16.70;99.90
14908;DHT22;7545;52.092;7.006;2022-10-16T11:37:19;16.70;99.90
14908;DHT22;7545;52.092;7.006;2022-10-16T11:39:45;16.80;99.90
14908;DHT22;7545;52.092;7.006;2022-10-16T11:42:22;16.90;99.90
14908;DHT22;7545;52.092;7.006;2022-10-16T11:45:13;16.90;99.90
14908;DHT22;7545;52.092;7.006;2022-10-16T11:47:45;17.00;99.90
14908;DHT22;7545;52.092;7.006;2022-10-16T11:52:52;17.10;99.90
14908;DHT22;7545;52.092;7.006;2022-10-16T11:55:24;17.10;99.90
14908;DHT22;7545;52.092;7.006;2022-10-16T11:58:09;17.10;99.90
14908;DHT22;7545;52.092;7.006;2022-10-16T12:00:46;17.20;99.90
14908;DHT22;7545;52.092;7.006;2022-10-16T12:03:23;17.20;99.90
14908;DHT22;7545;52.092;7.006;2022-10-16T12:06:01;17.30;99.90
14908;DHT22;7545;52.092;7.006;2022-10-16T12:08:34;17.30;99.90
14908;DHT22;7545;52.092;7.006;2022-10-16T12:13:47;17.40;99.90
14908;DHT22;7545;52.092;7.006;2022-10-16T12:18:44;17.50;99.90
14908;DHT22;7545;52.092;7.006;2022-10-16T12:21:11;17.50;99.90
14908;DHT22;7545;52.092;7.006;2022-10-16T12:23:47;17.60;99.90
14908;DHT22;7545;52.092;7.006;2022-10-16T12:26:14;17.60;99.90
14908;DHT22;7545;52.092;7.006;2022-10-16T12:28:48;17.70;99.90
14908;DHT22;7545;52.092;7.006;2022-10-16T12:31:16;17.70;99.90
14908;DHT22;7545;52.092;7.006;2022-10-16T12:33:59;17.80;99.90
14908;DHT22;7545;52.092;7.006;2022-10-16T12:36:31;17.80;99.90
14908;DHT22;7545;52.092;7.006;2022-10-16T12:38:58;17.80;99.90
14908;DHT22;7545;52.092;7.006;2022-10-16T12:41:26;17.80;99.90
14908;DHT22;7545;52.092;7.006;2022-10-16T12:43:53;17.80;99.90
14908;DHT22;7545;52.092;7.006;2022-10-16T12:46:23;17.80;99.90
14908;DHT22;7545;52.092;7.006;2022-10-16T12:48:49;17.80;99.90
14908;DHT22;7545;52.092;7.006;2022-10-16T12:51:34;17.80;99.90
14908;DHT22;7545;52.092;7.006;2022-10-16T12:54:04;17.80;99.90
14908;DHT22;7545;52.092;7.006;2022-10-16T12:56:39;17.90;99.90
14908;DHT22;7545;52.092;7.006;2022-10-16T12:59:13;17.90;99.90
14908;DHT22;7545;52.092;7.006;2022-10-16T13:07:30;18.00;99.90
14908;DHT22;7545;52.092;7.006;2022-10-16T13:13:09;18.00;99.90
14908;DHT22;7545;52.092;7.006;2022-10-16T13:18:14;18.20;99.90
14908;DHT22;7545;52.092;7.006;2022-10-16T13:23:46;18.20;99.90
14908;DHT22;7545;52.092;7.006;2022-10-16T13:28:46;18.20;99.90
14908;DHT22;7545;52.092;7.006;2022-10-16T13:31:17;18.10;99.90
14908;DHT22;7545;52.092;7.006;2022-10-16T13:33:47;18.10;99.90
14908;DHT22;7545;52.092;7.006;2022-10-16T13:36:42;18.00;99.90
14908;DHT22;7545;52.092;7.006;2022-10-16T13:39:23;18.00;99.90
14908;DHT22;7545;52.092;7.006;2022-10-16T13:42:12;18.00;99.90
14908;DHT22;7545;52.092;7.006;2022-10-16T13:44:52;17.90;99.90
14908;DHT22;7545;52.092;7.006;2022-10-16T13:47:23;17.90;99.90
14908;DHT22;7545;52.092;7.006;2022-10-16T13:50:04;17.90;99.90
14908;DHT22;7545;52.092;7.006;2022-10-16T13:52:31;17.90;99.90
14908;DHT22;7545;52.092;7.006;2022-10-16T13:54:57;17.90;99.90
14908;DHT22;7545;52.092;7.006;2022-10-16T13:57:25;18.00;99.90
14908;DHT22;7545;52.092;7.006;2022-10-16T13:59:51;18.00;99.90
14908;DHT22;7545;52.092;7.006;2022-10-16T14:02:30;18.00;99.90
14908;DHT22;7545;52.092;7.006;2022-10-16T14:04:57;18.00;99.90
14908;DHT22;7545;52.092;7.006;2022-10-16T14:07:29;18.00;99.90
14908;DHT22;7545;52.092;7.006;2022-10-16T14:09:56;18.00;99.90
14908;DHT22;7545;52.092;7.006;2022-10-16T14:12:23;18.00;99.90
14908;DHT22;7545;52.092;7.006;2022-10-16T14:14:51;18.00;99.90
14908;DHT22;7545;52.092;7.006;2022-10-16T14:17:29;18.00;99.90
14908;DHT22;7545;52.092;7.006;2022-10-16T14:19:59;18.00;99.90
14908;DHT22;7545;52.092;7.006;2022-10-16T14:22:34;18.00;99.90
14908;DHT22;7545;52.092;7.006;2022-10-16T14:25:13;18.00;99.90
14908;DHT22;7545;52.092;7.006;2022-10-16T14:27:38;17.90;99.90
14908;DHT22;7545;52.092;7.006;2022-10-16T14:32:33;18.00;99.90
14908;DHT22;7545;52.092;7.006;2022-10-16T14:34:58;17.90;99.90
14908;DHT22;7545;52.092;7.006;2022-10-16T14:37:26;17.90;99.90
14908;DHT22;7545;52.092;7.006;2022-10-16T14:39:54;17.90;99.90
14908;DHT22;7545;52.092;7.006;2022-10-16T14:42:21;17.90;99.90
14908;DHT22;7545;52.092;7.006;2022-10-16T14:44:50;17.90;99.90
14908;DHT22;7545;52.092;7.006;2022-10-16T14:47:23;17.80;99.90
14908;DHT22;7545;52.092;7.006;2022-10-16T14:49:52;17.90;99.90
14908;DHT22;7545;52.092;7.006;2022-10-16T14:52:20;17.80;99.90
14908;DHT22;7545;52.092;7.006;2022-10-16T14:54:49;17.80;99.90
14908;DHT22;7545;52.092;7.006;2022-10-16T14:57:20;17.80;99.90
14908;DHT22;7545;52.092;7.006;2022-10-16T14:59:47;17.80;99.90
14908;DHT22;7545;52.092;7.006;2022-10-16T15:02:34;17.80;99.90
14908;DHT22;7545;52.092;7.006;2022-10-16T15:05:11;17.80;99.90
14908;DHT22;7545;52.092;7.006;2022-10-16T15:07:37;17.70;99.90
14908;DHT22;7545;52.092;7.006;2022-10-16T15:10:03;17.70;99.90
14908;DHT22;7545;52.092;7.006;2022-10-16T15:12:29;17.60;99.90
14908;DHT22;7545;52.092;7.006;2022-10-16T15:14:54;17.60;99.90
14908;DHT22;7545;52.092;7.006;2022-10-16T15:17:20;17.60;99.90
14908;DHT22;7545;52.092;7.006;2022-10-16T15:19:45;17.50;99.90
14908;DHT22;7545;52.092;7.006;2022-10-16T15:22:11;17.50;99.90
14908;DHT22;7545;52.092;7.006;2022-10-16T15:24:37;17.50;99.90
14908;DHT22;7545;52.092;7.006;2022-10-16T15:27:03;17.40;99.90
14908;DHT22;7545;52.092;7.006;2022-10-16T15:29:28;17.40;99.90
14908;DHT22;7545;52.092;7.006;2022-10-16T15:31:54;17.40;99.90
14908;DHT22;7545;52.092;7.006;2022-10-16T15:34:19;17.40;99.90
14908;DHT22;7545;52.092;7.006;2022-10-16T15:36:45;17.30;99.90
14908;DHT22;7545;52.092;7.006;2022-10-16T15:39:16;17.30;99.90
14908;DHT22;7545;52.092;7.006;2022-10-16T15:41:42;17.30;99.90
14908;DHT22;7545;52.092;7.006;2022-10-16T15:44:08;17.30;99.90
14908;DHT22;7545;52.092;7.006;2022-10-16T15:46:34;17.20;99.90
14908;DHT22;7545;52.092;7.006;2022-10-16T15:49:00;17.20;99.90
14908;DHT22;7545;52.092;7.006;2022-10-16T15:51:27;17.20;99.90
14908;DHT22;7545;52.092;7.006;2022-10-16T15:53:55;17.10;99.90
14908;DHT22;7545;52.092;7.006;2022-10-16T15:56:22;17.10;99.90
14908;DHT22;7545;52.092;7.006;2022-10-16T15:58:49;17.10;99.90
14908;DHT22;7545;52.092;7.006;2022-10-16T16:01:15;17.10;99.90
14908;DHT22;7545;52.092;7.006;2022-10-16T16:03:41;17.00;99.90
14908;DHT22;7545;52.092;7.006;2022-10-16T16:06:09;17.00;99.90
14908;DHT22;7545;52.092;7.006;2022-10-16T16:08:35;16.90;99.90
14908;DHT22;7545;52.092;7.006;2022-10-16T16:13:28;16.80;99.90
14908;DHT22;7545;52.092;7.006;2022-10-16T16:15:54;16.80;99.90
14908;DHT22;7545;52.092;7.006;2022-10-16T16:18:20;16.70;99.90
14908;DHT22;7545;52.092;7.006;2022-10-16T16:20:46;16.70;99.90
14908;DHT22;7545;52.092;7.006;2022-10-16T16:23:11;16.60;99.90
14908;DHT22;7545;52.092;7.006;2022-10-16T16:25:37;16.50;99.90
14908;DHT22;7545;52.092;7.006;2022-10-16T16:28:03;16.50;99.90
14908;DHT22;7545;52.092;7.006;2022-10-16T16:30:28;16.50;99.90
14908;DHT22;7545;52.092;7.006;2022-10-16T16:32:54;16.40;99.90
14908;DHT22;7545;52.092;7.006;2022-10-16T16:35:19;16.40;99.90
14908;DHT22;7545;52.092;7.006;2022-10-16T16:37:46;16.30;99.90
14908;DHT22;7545;52.092;7.006;2022-10-16T16:40:12;16.30;99.90
14908;DHT22;7545;52.092;7.006;2022-10-16T16:42:38;16.30;99.90
14908;DHT22;7545;52.092;7.006;2022-10-16T16:45:04;16.20;99.90
14908;DHT22;7545;52.092;7.006;2022-10-16T16:47:29;16.10;99.90
14908;DHT22;7545;52.092;7.006;2022-10-16T16:49:55;16.10;99.90
14908;DHT22;7545;52.092;7.006;2022-10-16T16:52:20;16.00;99.90
14908;DHT22;7545;52.092;7.006;2022-10-16T16:54:47;16.00;99.90
14908;DHT22;7545;52.092;7.006;2022-10-16T16:57:18;16.00;99.90
14908;DHT22;7545;52.092;7.006;2022-10-16T16:59:44;16.00;99.90
14908;DHT22;7545;52.092;7.006;2022-10-16T17:02:09;15.90;99.90
14908;DHT22;7545;52.092;7.006;2022-10-16T17:04:35;15.90;99.90
14908;DHT22;7545;52.092;7.006;2022-10-16T17:07:00;15.80;99.90
14908;DHT22;7545;52.092;7.006;2022-10-16T17:09:26;15.80;99.90
14908;DHT22;7545;52.092;7.006;2022-10-16T17:11:52;15.70;99.90
14908;DHT22;7545;52.092;7.006;2022-10-16T17:14:17;15.70;99.90
14908;DHT22;7545;52.092;7.006;2022-10-16T17:16:43;15.70;99.90
14908;DHT22;7545;52.092;7.006;2022-10-16T17:19:14;15.60;99.90
14908;DHT22;7545;52.092;7.006;2022-10-16T17:21:41;15.60;99.90
14908;DHT22;7545;52.092;7.006;2022-10-16T17:24:07;15.60;99.90
14908;DHT22;7545;52.092;7.006;2022-10-16T17:26:33;15.60;99.90
14908;DHT22;7545;52.092;7.006;2022-10-16T17:29:03;15.60;99.90
14908;DHT22;7545;52.092;7.006;2022-10-16T17:31:31;15.60;99.90
14908;DHT22;7545;52.092;7.006;2022-10-16T17:33:58;15.50;99.90
14908;DHT22;7545;52.092;7.006;2022-10-16T17:36:25;15.50;99.90
14908;DHT22;7545;52.092;7.006;2022-10-16T17:38:54;15.50;99.90